Anna-meta — A8XN3 — position and weather

sailwx.info

Track history (hours):
 
Tides and Currents Weather Stations Pressure Air Temp Water Temp Dewpoint Dewpoint Depression Visibility Wind Speed Wind Dir Waves Ship Positions

Anna-meta

Last reported at 2015-Feb-26 00:33 UTC. Time now 2015-Mar-04 15:22 UTC.
Position N 29°48' E 122°06'.

Length 190 m; draft 6.4 m.

Type: Cargo ship. MMSI: 636092143.

Date/timePositionNaut miles runAvg speedWind from/ knotsBaromVisibWave heightAir tempDewpointWater temp
2015-Feb-26 00:33N 29°48' E 122°06'0 0.1
2015-Feb-25 22:33N 29°47' E 122°06'0 0.1
2015-Feb-25 21:30N 29°48' E 122°06'0 0.0
2015-Feb-25 20:15N 29°48' E 122°06'0 0.0
2015-Feb-25 19:33N 29°48' E 122°06'0 0.0
2015-Feb-25 18:33N 29°48' E 122°06'0 0.0
2015-Feb-25 16:30N 29°48' E 122°06'0 0.1
2015-Feb-25 15:27N 29°48' E 122°06'0 0.0
2015-Feb-25 14:33N 29°48' E 122°06'0 0.1
2015-Feb-25 13:33N 29°48' E 122°06'0 0.0
2015-Feb-25 12:27N 29°48' E 122°06'0 0.0
2015-Feb-25 11:33N 29°48' E 122°06'0 0.1
2015-Feb-25 09:21N 29°48' E 122°06'  
2015-Feb-21 01:24N 29°47' E 122°05'1 1.6
2015-Feb-21 00:33N 29°48' E 122°05'0 0.1
2015-Feb-20 23:30N 29°48' E 122°05'0 0.0
2015-Feb-20 22:24N 29°48' E 122°05'0 0.0
2015-Feb-20 21:17N 29°48' E 122°05'0 0.1
2015-Feb-20 20:24N 29°48' E 122°05'0 0.1
2015-Feb-20 17:30N 29°48' E 122°05'0 0.0
2015-Feb-20 16:29N 29°48' E 122°05'0 0.1
2015-Feb-20 15:26N 29°48' E 122°05'0 0.1
2015-Feb-20 12:23N 29°48' E 122°05'0 0.1
2015-Feb-20 11:30N 29°48' E 122°05'0 0.0
2015-Feb-20 10:23N 29°48' E 122°05'0 0.0
2015-Feb-20 09:17N 29°48' E 122°05'0 0.1
2015-Feb-20 06:30N 29°48' E 122°05'0 0.0
2015-Feb-20 05:24N 29°48' E 122°05'0 0.0
2015-Feb-20 04:30N 29°48' E 122°05'0 0.0
2015-Feb-20 03:30N 29°48' E 122°05'1 1.2
2015-Feb-20 02:30N 29°49' E 122°06'7 7.3
2015-Feb-20 01:34N 29°52' E 122°13'0 0.0
2015-Feb-20 00:30N 29°52' E 122°13'0 0.1
2015-Feb-19 23:30N 29°52' E 122°13'0 0.2
2015-Feb-19 22:30N 29°52' E 122°13'0 0.0
2015-Feb-19 21:30N 29°52' E 122°13'0 0.0
2015-Feb-19 20:33N 29°52' E 122°13'0 0.0
2015-Feb-19 19:24N 29°52' E 122°13'0 0.1
2015-Feb-19 18:30N 29°52' E 122°13'0 0.1
2015-Feb-19 17:30N 29°52' E 122°13'0 0.0
2015-Feb-19 16:18N 29°52' E 122°13'0 0.2
2015-Feb-19 15:30N 29°52' E 122°13'0 0.0
2015-Feb-19 12:21N 29°52' E 122°13'0 0.1
2015-Feb-19 11:12N 29°52' E 122°13'0 0.1
2015-Feb-19 10:30N 29°52' E 122°13'0 0.1
2015-Feb-19 09:30N 29°52' E 122°13'0 0.0
2015-Feb-19 08:24N 29°52' E 122°13'0 0.0
2015-Feb-19 07:21N 29°52' E 122°13'0 0.1
2015-Feb-19 06:30N 29°52' E 122°13'0 0.0
2015-Feb-19 05:15N 29°52' E 122°13'0 0.1
2015-Feb-19 04:24N 29°52' E 122°13'0 0.0
2015-Feb-19 02:18N 29°52' E 122°13'0 0.0
2015-Feb-19 01:24N 29°52' E 122°13'0 0.3
2015-Feb-19 00:30N 29°52' E 122°13'0 0.2
2015-Feb-18 23:12N 29°52' E 122°13'0 0.0
2015-Feb-18 22:24N 29°52' E 122°13'0 0.0
2015-Feb-18 21:15N 29°52' E 122°13'0 0.0
2015-Feb-18 20:18N 29°52' E 122°13'0 0.0
2015-Feb-18 19:30N 29°52' E 122°13'0 0.0
2015-Feb-18 18:33N 29°52' E 122°13'0 0.0
2015-Feb-18 17:06N 29°52' E 122°13'0 0.1
2015-Feb-18 16:24N 29°52' E 122°13'0 0.0
2015-Feb-18 15:18N 29°52' E 122°13'0 0.0
2015-Feb-18 14:24N 29°52' E 122°13'0 0.1
2015-Feb-18 13:18N 29°52' E 122°13'0 0.1
2015-Feb-18 12:24N 29°52' E 122°13'0 0.1
2015-Feb-18 10:30N 29°52' E 122°13'0 0.0
2015-Feb-18 08:12N 29°52' E 122°13'0 0.0
2015-Feb-18 07:30N 29°52' E 122°13'0 0.0
2015-Feb-18 05:24N 29°52' E 122°13'0 0.0
2015-Feb-18 03:19N 29°52' E 122°13'6 6.7
2015-Feb-18 02:30N 29°47' E 122°16'7 6.7
2015-Feb-18 01:29N 29°46' E 122°24'0 0.3
2015-Feb-18 00:24N 29°47' E 122°24'0 0.0
2015-Feb-17 23:18N 29°47' E 122°24'0 0.1
2015-Feb-17 22:30N 29°47' E 122°23'0 0.1
2015-Feb-17 19:18N 29°46' E 122°24'0 0.0
2015-Feb-17 14:30N 29°47' E 122°24'0 0.0
2015-Feb-17 13:18N 29°47' E 122°24'0 0.0
2015-Feb-17 11:30N 29°47' E 122°24'0 0.1
2015-Feb-17 10:24N 29°46' E 122°23'0 0.0
2015-Feb-16 23:33N 29°47' E 122°24'  
Track history (hours):
 
Tides and Currents Weather Stations Pressure Air Temp Water Temp Dewpoint Dewpoint Depression Visibility Wind Speed Wind Dir Waves Ship Positions

Anna-meta

Last reported at 2015-Feb-26 00:33 UTC. Time now 2015-Mar-04 15:22 UTC.
Position N 29°48' E 122°06'.

Length 190 m; draft 6.4 m.

Type: Cargo ship. MMSI: 636092143.

Date/timePositionNaut miles runAvg speedWind from/ knotsBaromVisibWave heightAir tempDewpointWater temp
2015-Feb-26 00:33N 29°48' E 122°06'0 0.1
2015-Feb-25 22:33N 29°47' E 122°06'0 0.1
2015-Feb-25 21:30N 29°48' E 122°06'0 0.0
2015-Feb-25 20:15N 29°48' E 122°06'0 0.0
2015-Feb-25 19:33N 29°48' E 122°06'0 0.0
2015-Feb-25 18:33N 29°48' E 122°06'0 0.0
2015-Feb-25 16:30N 29°48' E 122°06'0 0.1
2015-Feb-25 15:27N 29°48' E 122°06'0 0.0
2015-Feb-25 14:33N 29°48' E 122°06'0 0.1
2015-Feb-25 13:33N 29°48' E 122°06'0 0.0
2015-Feb-25 12:27N 29°48' E 122°06'0 0.0
2015-Feb-25 11:33N 29°48' E 122°06'0 0.1
2015-Feb-25 09:21N 29°48' E 122°06'  
2015-Feb-21 01:24N 29°47' E 122°05'1 1.6
2015-Feb-21 00:33N 29°48' E 122°05'0 0.1
2015-Feb-20 23:30N 29°48' E 122°05'0 0.0
2015-Feb-20 22:24N 29°48' E 122°05'0 0.0
2015-Feb-20 21:17N 29°48' E 122°05'0 0.1
2015-Feb-20 20:24N 29°48' E 122°05'0 0.1
2015-Feb-20 17:30N 29°48' E 122°05'0 0.0
2015-Feb-20 16:29N 29°48' E 122°05'0 0.1
2015-Feb-20 15:26N 29°48' E 122°05'0 0.1
2015-Feb-20 12:23N 29°48' E 122°05'0 0.1
2015-Feb-20 11:30N 29°48' E 122°05'0 0.0
2015-Feb-20 10:23N 29°48' E 122°05'0 0.0
2015-Feb-20 09:17N 29°48' E 122°05'0 0.1
2015-Feb-20 06:30N 29°48' E 122°05'0 0.0
2015-Feb-20 05:24N 29°48' E 122°05'0 0.0
2015-Feb-20 04:30N 29°48' E 122°05'0 0.0
2015-Feb-20 03:30N 29°48' E 122°05'1 1.2
2015-Feb-20 02:30N 29°49' E 122°06'7 7.3
2015-Feb-20 01:34N 29°52' E 122°13'0 0.0
2015-Feb-20 00:30N 29°52' E 122°13'0 0.1
2015-Feb-19 23:30N 29°52' E 122°13'0 0.2
2015-Feb-19 22:30N 29°52' E 122°13'0 0.0
2015-Feb-19 21:30N 29°52' E 122°13'0 0.0
2015-Feb-19 20:33N 29°52' E 122°13'0 0.0
2015-Feb-19 19:24N 29°52' E 122°13'0 0.1
2015-Feb-19 18:30N 29°52' E 122°13'0 0.1
2015-Feb-19 17:30N 29°52' E 122°13'0 0.0
2015-Feb-19 16:18N 29°52' E 122°13'0 0.2
2015-Feb-19 15:30N 29°52' E 122°13'0 0.0
2015-Feb-19 12:21N 29°52' E 122°13'0 0.1
2015-Feb-19 11:12N 29°52' E 122°13'0 0.1
2015-Feb-19 10:30N 29°52' E 122°13'0 0.1
2015-Feb-19 09:30N 29°52' E 122°13'0 0.0
2015-Feb-19 08:24N 29°52' E 122°13'0 0.0
2015-Feb-19 07:21N 29°52' E 122°13'0 0.1
2015-Feb-19 06:30N 29°52' E 122°13'0 0.0
2015-Feb-19 05:15N 29°52' E 122°13'0 0.1
2015-Feb-19 04:24N 29°52' E 122°13'0 0.0
2015-Feb-19 02:18N 29°52' E 122°13'0 0.0
2015-Feb-19 01:24N 29°52' E 122°13'0 0.3
2015-Feb-19 00:30N 29°52' E 122°13'0 0.2
2015-Feb-18 23:12N 29°52' E 122°13'0 0.0
2015-Feb-18 22:24N 29°52' E 122°13'0 0.0
2015-Feb-18 21:15N 29°52' E 122°13'0 0.0
2015-Feb-18 20:18N 29°52' E 122°13'0 0.0
2015-Feb-18 19:30N 29°52' E 122°13'0 0.0
2015-Feb-18 18:33N 29°52' E 122°13'0 0.0
2015-Feb-18 17:06N 29°52' E 122°13'0 0.1
2015-Feb-18 16:24N 29°52' E 122°13'0 0.0
2015-Feb-18 15:18N 29°52' E 122°13'0 0.0
2015-Feb-18 14:24N 29°52' E 122°13'0 0.1
2015-Feb-18 13:18N 29°52' E 122°13'0 0.1
2015-Feb-18 12:24N 29°52' E 122°13'0 0.1
2015-Feb-18 10:30N 29°52' E 122°13'0 0.0
2015-Feb-18 08:12N 29°52' E 122°13'0 0.0
2015-Feb-18 07:30N 29°52' E 122°13'0 0.0
2015-Feb-18 05:24N 29°52' E 122°13'0 0.0
2015-Feb-18 03:19N 29°52' E 122°13'6 6.7
2015-Feb-18 02:30N 29°47' E 122°16'7 6.7
2015-Feb-18 01:29N 29°46' E 122°24'0 0.3
2015-Feb-18 00:24N 29°47' E 122°24'0 0.0
2015-Feb-17 23:18N 29°47' E 122°24'0 0.1
2015-Feb-17 22:30N 29°47' E 122°23'0 0.1
2015-Feb-17 19:18N 29°46' E 122°24'0 0.0
2015-Feb-17 14:30N 29°47' E 122°24'0 0.0
2015-Feb-17 13:18N 29°47' E 122°24'0 0.0
2015-Feb-17 11:30N 29°47' E 122°24'0 0.1
2015-Feb-17 10:24N 29°46' E 122°23'0 0.0
2015-Feb-16 23:33N 29°47' E 122°24'  

Dump ship's entire track history